ePrivacy and GPDR Cookie Consent by Cookie Consent
EmailTwitter


Observations de surface / France / LFBO (07630)

Régions: Québec | Canada | États-Unis | Europe | France | UK | Ailleurs
Station
Affichage
Infos & localisation pour LFBO (07630) | Aide pour décoder les METARs

Observations prises le 2021-05-18 à 17H30 UTC à TOULOUSE/BLAGNAC, FR (LFBO)

Etat du ciel: couvert.

Température: 11.0 Celsius

Point de rosée: 10.0 Celsius

Humidité relative: 94%

Vents: Nord-ouest à 15 km/h ou 8 noeuds.

Pression au niveau moyen de la mer: 102.00 kilopascals.

Visibilité horizontale: 6.21 milles terrestres ou 9.94 kilomètres.

Hauteur du plafond: 884 mètres ( 2900 pieds ).

Observation METAR:

LFBO 181730Z AUTO 30008KT 9999 BKN029 OVC034 11/10 Q1020 BECMG FEW035TCU BKN080=